sensor_id;sensor_type;location;lat;lon;timestamp;P1;durP1;ratioP1;P2;durP2;ratioP2
39518;SDS011;25200;53.394;10.414;2023-02-15T00:00:19;38.33;;;15.48;;
39518;SDS011;25200;53.394;10.414;2023-02-15T00:02:45;36.05;;;16.05;;
39518;SDS011;25200;53.394;10.414;2023-02-15T00:05:10;37.33;;;16.30;;
39518;SDS011;25200;53.394;10.414;2023-02-15T00:07:36;35.03;;;15.63;;
39518;SDS011;25200;53.394;10.414;2023-02-15T00:10:03;35.58;;;15.50;;
39518;SDS011;25200;53.394;10.414;2023-02-15T00:12:29;31.45;;;14.98;;
39518;SDS011;25200;53.394;10.414;2023-02-15T00:14:54;34.78;;;14.85;;
39518;SDS011;25200;53.394;10.414;2023-02-15T00:17:20;31.50;;;14.98;;
39518;SDS011;25200;53.394;10.414;2023-02-15T00:19:46;31.98;;;14.45;;
39518;SDS011;25200;53.394;10.414;2023-02-15T00:22:12;33.25;;;15.02;;
39518;SDS011;25200;53.394;10.414;2023-02-15T00:24:37;30.77;;;14.52;;
39518;SDS011;25200;53.394;10.414;2023-02-15T00:27:03;34.13;;;15.02;;
39518;SDS011;25200;53.394;10.414;2023-02-15T00:29:29;29.83;;;13.77;;
39518;SDS011;25200;53.394;10.414;2023-02-15T00:31:54;31.25;;;13.88;;
39518;SDS011;25200;53.394;10.414;2023-02-15T00:34:22;28.02;;;14.07;;
39518;SDS011;25200;53.394;10.414;2023-02-15T00:36:51;30.25;;;14.73;;
39518;SDS011;25200;53.394;10.414;2023-02-15T00:39:17;30.50;;;13.60;;
39518;SDS011;25200;53.394;10.414;2023-02-15T00:41:44;33.45;;;14.93;;
39518;SDS011;25200;53.394;10.414;2023-02-15T00:44:11;32.60;;;16.52;;
39518;SDS011;25200;53.394;10.414;2023-02-15T00:46:37;29.88;;;14.77;;
39518;SDS011;25200;53.394;10.414;2023-02-15T00:49:03;34.22;;;14.43;;
39518;SDS011;25200;53.394;10.414;2023-02-15T00:51:29;33.22;;;14.57;;
39518;SDS011;25200;53.394;10.414;2023-02-15T00:53:55;33.10;;;15.27;;
39518;SDS011;25200;53.394;10.414;2023-02-15T00:56:20;35.03;;;16.05;;
39518;SDS011;25200;53.394;10.414;2023-02-15T00:58:46;30.80;;;15.38;;
39518;SDS011;25200;53.394;10.414;2023-02-15T01:01:13;41.72;;;15.50;;
39518;SDS011;25200;53.394;10.414;2023-02-15T01:03:43;36.42;;;14.57;;
39518;SDS011;25200;53.394;10.414;2023-02-15T01:06:10;42.33;;;15.90;;
39518;SDS011;25200;53.394;10.414;2023-02-15T01:08:36;37.60;;;15.52;;
39518;SDS011;25200;53.394;10.414;2023-02-15T01:11:06;30.88;;;14.05;;
39518;SDS011;25200;53.394;10.414;2023-02-15T01:13:35;30.38;;;14.63;;
39518;SDS011;25200;53.394;10.414;2023-02-15T01:16:01;32.60;;;13.35;;
39518;SDS011;25200;53.394;10.414;2023-02-15T01:18:28;32.63;;;14.80;;
39518;SDS011;25200;53.394;10.414;2023-02-15T01:20:53;29.05;;;14.05;;
39518;SDS011;25200;53.394;10.414;2023-02-15T01:23:19;29.27;;;14.43;;
39518;SDS011;25200;53.394;10.414;2023-02-15T01:25:45;33.47;;;14.98;;
39518;SDS011;25200;53.394;10.414;2023-02-15T01:28:11;29.52;;;13.63;;
39518;SDS011;25200;53.394;10.414;2023-02-15T01:30:37;25.88;;;13.98;;
39518;SDS011;25200;53.394;10.414;2023-02-15T01:33:03;28.05;;;13.95;;
39518;SDS011;25200;53.394;10.414;2023-02-15T01:35:28;26.17;;;13.43;;
39518;SDS011;25200;53.394;10.414;2023-02-15T01:37:54;32.45;;;12.80;;
39518;SDS011;25200;53.394;10.414;2023-02-15T01:40:21;29.10;;;13.15;;
39518;SDS011;25200;53.394;10.414;2023-02-15T01:42:51;28.70;;;13.18;;
39518;SDS011;25200;53.394;10.414;2023-02-15T01:45:19;25.23;;;12.85;;
39518;SDS011;25200;53.394;10.414;2023-02-15T01:47:52;25.90;;;13.00;;
39518;SDS011;25200;53.394;10.414;2023-02-15T01:50:32;27.83;;;12.95;;
39518;SDS011;25200;53.394;10.414;2023-02-15T01:55:32;29.90;;;12.95;;
39518;SDS011;25200;53.394;10.414;2023-02-15T01:58:01;21.60;;;12.15;;
39518;SDS011;25200;53.394;10.414;2023-02-15T02:00:27;31.35;;;13.23;;
39518;SDS011;25200;53.394;10.414;2023-02-15T02:02:54;23.05;;;13.35;;
39518;SDS011;25200;53.394;10.414;2023-02-15T02:05:21;31.00;;;13.13;;
39518;SDS011;25200;53.394;10.414;2023-02-15T02:07:48;27.17;;;12.73;;
39518;SDS011;25200;53.394;10.414;2023-02-15T02:10:16;25.55;;;11.70;;
39518;SDS011;25200;53.394;10.414;2023-02-15T02:12:45;23.02;;;11.98;;
39518;SDS011;25200;53.394;10.414;2023-02-15T02:15:14;25.63;;;12.35;;
39518;SDS011;25200;53.394;10.414;2023-02-15T02:17:50;21.38;;;10.77;;
39518;SDS011;25200;53.394;10.414;2023-02-15T02:31:45;22.63;;;10.52;;
39518;SDS011;25200;53.394;10.414;2023-02-15T02:34:29;20.23;;;10.60;;
39518;SDS011;25200;53.394;10.414;2023-02-15T02:37:03;24.50;;;11.40;;
39518;SDS011;25200;53.394;10.414;2023-02-15T02:45:04;29.20;;;11.77;;
39518;SDS011;25200;53.394;10.414;2023-02-15T02:50:12;29.98;;;10.75;;
39518;SDS011;25200;53.394;10.414;2023-02-15T02:57:58;23.95;;;12.00;;
39518;SDS011;25200;53.394;10.414;2023-02-15T03:00:29;28.48;;;11.57;;
39518;SDS011;25200;53.394;10.414;2023-02-15T03:03:02;30.35;;;12.60;;
39518;SDS011;25200;53.394;10.414;2023-02-15T03:05:34;29.17;;;12.80;;
39518;SDS011;25200;53.394;10.414;2023-02-15T03:08:06;32.92;;;12.23;;
39518;SDS011;25200;53.394;10.414;2023-02-15T03:10:35;21.42;;;11.43;;
39518;SDS011;25200;53.394;10.414;2023-02-15T03:13:03;32.45;;;12.98;;
39518;SDS011;25200;53.394;10.414;2023-02-15T03:15:30;27.67;;;12.30;;
39518;SDS011;25200;53.394;10.414;2023-02-15T03:18:20;29.42;;;12.13;;
39518;SDS011;25200;53.394;10.414;2023-02-15T03:20:50;35.08;;;12.68;;
39518;SDS011;25200;53.394;10.414;2023-02-15T03:23:19;39.67;;;12.45;;
39518;SDS011;25200;53.394;10.414;2023-02-15T03:25:52;28.65;;;11.27;;
39518;SDS011;25200;53.394;10.414;2023-02-15T03:31:20;28.00;;;11.35;;
39518;SDS011;25200;53.394;10.414;2023-02-15T03:33:50;33.25;;;11.43;;
39518;SDS011;25200;53.394;10.414;2023-02-15T03:36:21;22.10;;;10.55;;
39518;SDS011;25200;53.394;10.414;2023-02-15T03:41:37;24.55;;;11.40;;
39518;SDS011;25200;53.394;10.414;2023-02-15T03:44:31;20.67;;;10.75;;
39518;SDS011;25200;53.394;10.414;2023-02-15T03:49:47;33.80;;;11.23;;
39518;SDS011;25200;53.394;10.414;2023-02-15T03:52:27;26.90;;;10.50;;
39518;SDS011;25200;53.394;10.414;2023-02-15T03:54:54;24.48;;;10.27;;
39518;SDS011;25200;53.394;10.414;2023-02-15T03:57:25;23.17;;;10.27;;
39518;SDS011;25200;53.394;10.414;2023-02-15T04:05:43;16.33;;;9.07;;
39518;SDS011;25200;53.394;10.414;2023-02-15T04:08:09;18.23;;;10.55;;
39518;SDS011;25200;53.394;10.414;2023-02-15T04:10:36;18.27;;;10.35;;
39518;SDS011;25200;53.394;10.414;2023-02-15T04:13:17;17.60;;;9.07;;
39518;SDS011;25200;53.394;10.414;2023-02-15T04:15:46;19.92;;;10.40;;
39518;SDS011;25200;53.394;10.414;2023-02-15T04:21:15;15.55;;;8.65;;
39518;SDS011;25200;53.394;10.414;2023-02-15T04:23:59;23.35;;;9.77;;
39518;SDS011;25200;53.394;10.414;2023-02-15T04:26:43;20.85;;;8.90;;
39518;SDS011;25200;53.394;10.414;2023-02-15T04:29:09;20.88;;;9.50;;
39518;SDS011;25200;53.394;10.414;2023-02-15T04:31:35;22.25;;;9.07;;
39518;SDS011;25200;53.394;10.414;2023-02-15T04:34:00;32.17;;;9.25;;
39518;SDS011;25200;53.394;10.414;2023-02-15T04:36:26;23.40;;;9.45;;
39518;SDS011;25200;53.394;10.414;2023-02-15T04:38:51;28.42;;;10.05;;
39518;SDS011;25200;53.394;10.414;2023-02-15T04:41:17;27.48;;;9.05;;
39518;SDS011;25200;53.394;10.414;2023-02-15T04:43:43;19.73;;;8.98;;
39518;SDS011;25200;53.394;10.414;2023-02-15T04:46:08;29.10;;;9.38;;
39518;SDS011;25200;53.394;10.414;2023-02-15T04:48:34;26.15;;;8.75;;
39518;SDS011;25200;53.394;10.414;2023-02-15T04:51:04;23.58;;;9.63;;
39518;SDS011;25200;53.394;10.414;2023-02-15T04:53:31;15.90;;;8.63;;
39518;SDS011;25200;53.394;10.414;2023-02-15T04:55:57;23.13;;;9.27;;
39518;SDS011;25200;53.394;10.414;2023-02-15T04:58:23;21.33;;;10.63;;
39518;SDS011;25200;53.394;10.414;2023-02-15T05:00:48;24.75;;;10.25;;
39518;SDS011;25200;53.394;10.414;2023-02-15T05:03:14;21.15;;;9.52;;
39518;SDS011;25200;53.394;10.414;2023-02-15T05:05:40;26.48;;;10.20;;
39518;SDS011;25200;53.394;10.414;2023-02-15T05:08:05;16.00;;;8.52;;
39518;SDS011;25200;53.394;10.414;2023-02-15T05:10:31;20.17;;;9.88;;
39518;SDS011;25200;53.394;10.414;2023-02-15T05:12:57;17.85;;;9.52;;
39518;SDS011;25200;53.394;10.414;2023-02-15T05:15:22;18.73;;;9.35;;
39518;SDS011;25200;53.394;10.414;2023-02-15T05:17:48;19.05;;;9.60;;
39518;SDS011;25200;53.394;10.414;2023-02-15T05:20:14;22.23;;;10.77;;
39518;SDS011;25200;53.394;10.414;2023-02-15T05:22:40;24.52;;;10.45;;
39518;SDS011;25200;53.394;10.414;2023-02-15T05:25:06;33.03;;;11.30;;
39518;SDS011;25200;53.394;10.414;2023-02-15T05:27:51;24.92;;;11.32;;
39518;SDS011;25200;53.394;10.414;2023-02-15T05:30:35;24.48;;;10.60;;
39518;SDS011;25200;53.394;10.414;2023-02-15T05:33:01;21.77;;;10.88;;
39518;SDS011;25200;53.394;10.414;2023-02-15T05:35:26;20.20;;;10.73;;
39518;SDS011;25200;53.394;10.414;2023-02-15T05:37:52;27.15;;;11.23;;
39518;SDS011;25200;53.394;10.414;2023-02-15T05:40:18;36.72;;;11.60;;
39518;SDS011;25200;53.394;10.414;2023-02-15T05:42:43;25.48;;;10.43;;
39518;SDS011;25200;53.394;10.414;2023-02-15T05:45:09;30.65;;;11.40;;
39518;SDS011;25200;53.394;10.414;2023-02-15T05:47:35;24.88;;;10.45;;
39518;SDS011;25200;53.394;10.414;2023-02-15T05:50:00;25.90;;;9.45;;
39518;SDS011;25200;53.394;10.414;2023-02-15T05:52:26;27.10;;;9.85;;
39518;SDS011;25200;53.394;10.414;2023-02-15T05:54:52;16.90;;;9.05;;
39518;SDS011;25200;53.394;10.414;2023-02-15T05:57:17;21.58;;;10.38;;
39518;SDS011;25200;53.394;10.414;2023-02-15T05:59:43;31.92;;;11.30;;
39518;SDS011;25200;53.394;10.414;2023-02-15T06:02:08;29.73;;;11.18;;
39518;SDS011;25200;53.394;10.414;2023-02-15T06:04:34;22.92;;;10.65;;
39518;SDS011;25200;53.394;10.414;2023-02-15T06:07:00;28.00;;;12.18;;
39518;SDS011;25200;53.394;10.414;2023-02-15T06:09:25;31.85;;;11.48;;
39518;SDS011;25200;53.394;10.414;2023-02-15T06:11:51;27.25;;;11.43;;
39518;SDS011;25200;53.394;10.414;2023-02-15T06:14:16;35.03;;;10.57;;
39518;SDS011;25200;53.394;10.414;2023-02-15T06:16:42;29.83;;;10.40;;
39518;SDS011;25200;53.394;10.414;2023-02-15T06:19:08;24.17;;;10.63;;
39518;SDS011;25200;53.394;10.414;2023-02-15T06:21:33;35.30;;;10.88;;
39518;SDS011;25200;53.394;10.414;2023-02-15T06:23:59;21.83;;;10.57;;
39518;SDS011;25200;53.394;10.414;2023-02-15T06:26:25;23.65;;;10.98;;
39518;SDS011;25200;53.394;10.414;2023-02-15T06:28:50;27.00;;;11.50;;
39518;SDS011;25200;53.394;10.414;2023-02-15T06:31:16;27.33;;;10.90;;
39518;SDS011;25200;53.394;10.414;2023-02-15T06:33:42;31.83;;;11.52;;
39518;SDS011;25200;53.394;10.414;2023-02-15T06:36:07;29.05;;;10.68;;
39518;SDS011;25200;53.394;10.414;2023-02-15T06:38:33;23.17;;;11.15;;
39518;SDS011;25200;53.394;10.414;2023-02-15T06:40:59;38.40;;;11.15;;
39518;SDS011;25200;53.394;10.414;2023-02-15T06:43:24;21.40;;;9.32;;
39518;SDS011;25200;53.394;10.414;2023-02-15T06:45:50;28.63;;;10.13;;
39518;SDS011;25200;53.394;10.414;2023-02-15T06:48:16;23.73;;;10.38;;
39518;SDS011;25200;53.394;10.414;2023-02-15T06:50:41;21.73;;;9.88;;
39518;SDS011;25200;53.394;10.414;2023-02-15T06:53:07;20.48;;;10.43;;
39518;SDS011;25200;53.394;10.414;2023-02-15T06:55:33;23.25;;;10.20;;
39518;SDS011;25200;53.394;10.414;2023-02-15T06:57:58;22.35;;;11.52;;
39518;SDS011;25200;53.394;10.414;2023-02-15T07:00:24;26.42;;;10.55;;
39518;SDS011;25200;53.394;10.414;2023-02-15T07:02:53;22.50;;;9.73;;
39518;SDS011;25200;53.394;10.414;2023-02-15T07:05:23;24.27;;;10.05;;
39518;SDS011;25200;53.394;10.414;2023-02-15T07:07:49;18.30;;;9.88;;
39518;SDS011;25200;53.394;10.414;2023-02-15T07:10:15;19.42;;;9.85;;
39518;SDS011;25200;53.394;10.414;2023-02-15T07:12:41;19.45;;;9.98;;
39518;SDS011;25200;53.394;10.414;2023-02-15T07:15:11;28.30;;;10.27;;
39518;SDS011;25200;53.394;10.414;2023-02-15T07:17:38;24.88;;;9.75;;
39518;SDS011;25200;53.394;10.414;2023-02-15T07:20:15;40.88;;;10.23;;
39518;SDS011;25200;53.394;10.414;2023-02-15T07:22:42;25.83;;;11.48;;
39518;SDS011;25200;53.394;10.414;2023-02-15T07:25:09;31.83;;;9.88;;
39518;SDS011;25200;53.394;10.414;2023-02-15T07:27:36;24.27;;;10.75;;
39518;SDS011;25200;53.394;10.414;2023-02-15T07:30:03;22.60;;;9.75;;
39518;SDS011;25200;53.394;10.414;2023-02-15T07:32:30;23.00;;;9.50;;
39518;SDS011;25200;53.394;10.414;2023-02-15T07:34:57;25.00;;;9.88;;
39518;SDS011;25200;53.394;10.414;2023-02-15T07:37:23;21.90;;;10.55;;
39518;SDS011;25200;53.394;10.414;2023-02-15T07:39:49;29.92;;;11.13;;
39518;SDS011;25200;53.394;10.414;2023-02-15T07:42:14;28.65;;;10.50;;
39518;SDS011;25200;53.394;10.414;2023-02-15T07:44:40;26.05;;;9.80;;
39518;SDS011;25200;53.394;10.414;2023-02-15T07:47:06;26.00;;;10.48;;
39518;SDS011;25200;53.394;10.414;2023-02-15T07:49:31;27.05;;;10.18;;
39518;SDS011;25200;53.394;10.414;2023-02-15T07:51:57;26.10;;;10.73;;
39518;SDS011;25200;53.394;10.414;2023-02-15T07:54:26;30.75;;;10.50;;
39518;SDS011;25200;53.394;10.414;2023-02-15T07:56:51;23.23;;;11.15;;
39518;SDS011;25200;53.394;10.414;2023-02-15T07:59:17;21.88;;;10.63;;
39518;SDS011;25200;53.394;10.414;2023-02-15T08:01:43;20.27;;;10.15;;
39518;SDS011;25200;53.394;10.414;2023-02-15T08:04:08;24.00;;;10.27;;
39518;SDS011;25200;53.394;10.414;2023-02-15T08:06:36;19.42;;;10.15;;
39518;SDS011;25200;53.394;10.414;2023-02-15T08:09:06;22.00;;;10.27;;
39518;SDS011;25200;53.394;10.414;2023-02-15T08:11:34;23.65;;;11.48;;
39518;SDS011;25200;53.394;10.414;2023-02-15T08:14:05;30.33;;;11.52;;
39518;SDS011;25200;53.394;10.414;2023-02-15T08:16:41;21.23;;;10.65;;
39518;SDS011;25200;53.394;10.414;2023-02-15T08:21:36;24.42;;;11.25;;
39518;SDS011;25200;53.394;10.414;2023-02-15T08:24:03;38.72;;;10.65;;
39518;SDS011;25200;53.394;10.414;2023-02-15T08:26:31;30.23;;;10.10;;
39518;SDS011;25200;53.394;10.414;2023-02-15T08:28:59;45.28;;;10.80;;
39518;SDS011;25200;53.394;10.414;2023-02-15T08:31:25;22.92;;;10.18;;
39518;SDS011;25200;53.394;10.414;2023-02-15T08:33:52;18.95;;;10.20;;
39518;SDS011;25200;53.394;10.414;2023-02-15T08:36:21;37.58;;;11.77;;
39518;SDS011;25200;53.394;10.414;2023-02-15T08:38:52;30.42;;;10.68;;
39518;SDS011;25200;53.394;10.414;2023-02-15T08:43:44;22.67;;;11.27;;
39518;SDS011;25200;53.394;10.414;2023-02-15T08:46:11;21.80;;;11.27;;
39518;SDS011;25200;53.394;10.414;2023-02-15T08:48:42;21.13;;;11.25;;
39518;SDS011;25200;53.394;10.414;2023-02-15T08:51:12;21.17;;;10.70;;
39518;SDS011;25200;53.394;10.414;2023-02-15T08:53:44;23.15;;;9.98;;
39518;SDS011;25200;53.394;10.414;2023-02-15T08:56:14;29.00;;;12.18;;
39518;SDS011;25200;53.394;10.414;2023-02-15T08:58:40;26.67;;;12.23;;
39518;SDS011;25200;53.394;10.414;2023-02-15T09:01:09;41.35;;;11.80;;
39518;SDS011;25200;53.394;10.414;2023-02-15T09:03:36;29.65;;;11.90;;
39518;SDS011;25200;53.394;10.414;2023-02-15T09:06:02;23.23;;;11.55;;
39518;SDS011;25200;53.394;10.414;2023-02-15T09:08:28;28.50;;;12.15;;
39518;SDS011;25200;53.394;10.414;2023-02-15T09:10:54;45.63;;;13.23;;
39518;SDS011;25200;53.394;10.414;2023-02-15T09:13:29;42.40;;;12.90;;
39518;SDS011;25200;53.394;10.414;2023-02-15T09:15:58;28.20;;;11.10;;
39518;SDS011;25200;53.394;10.414;2023-02-15T09:18:33;24.80;;;11.70;;
39518;SDS011;25200;53.394;10.414;2023-02-15T09:21:08;25.38;;;11.35;;
39518;SDS011;25200;53.394;10.414;2023-02-15T09:23:35;27.42;;;12.85;;
39518;SDS011;25200;53.394;10.414;2023-02-15T09:26:02;31.27;;;12.38;;
39518;SDS011;25200;53.394;10.414;2023-02-15T09:28:30;37.88;;;11.80;;
39518;SDS011;25200;53.394;10.414;2023-02-15T09:31:03;31.50;;;12.40;;
39518;SDS011;25200;53.394;10.414;2023-02-15T09:33:33;22.52;;;11.68;;
39518;SDS011;25200;53.394;10.414;2023-02-15T09:35:59;27.58;;;11.90;;
39518;SDS011;25200;53.394;10.414;2023-02-15T09:38:26;42.17;;;12.80;;
39518;SDS011;25200;53.394;10.414;2023-02-15T09:41:14;34.53;;;12.50;;
39518;SDS011;25200;53.394;10.414;2023-02-15T10:03:26;26.40;;;12.00;;
39518;SDS011;25200;53.394;10.414;2023-02-15T10:08:55;33.65;;;13.02;;
39518;SDS011;25200;53.394;10.414;2023-02-15T10:27:56;31.88;;;13.07;;
39518;SDS011;25200;53.394;10.414;2023-02-15T10:30:33;27.27;;;12.73;;
39518;SDS011;25200;53.394;10.414;2023-02-15T10:33:52;27.48;;;14.13;;
39518;SDS011;25200;53.394;10.414;2023-02-15T10:38:50;27.83;;;13.63;;
39518;SDS011;25200;53.394;10.414;2023-02-15T11:04:10;26.42;;;13.57;;
39518;SDS011;25200;53.394;10.414;2023-02-15T11:07:04;27.55;;;13.50;;
39518;SDS011;25200;53.394;10.414;2023-02-15T11:09:42;26.73;;;12.30;;
39518;SDS011;25200;53.394;10.414;2023-02-15T11:12:13;22.92;;;12.18;;
39518;SDS011;25200;53.394;10.414;2023-02-15T11:17:37;26.20;;;13.63;;
39518;SDS011;25200;53.394;10.414;2023-02-15T11:20:18;28.42;;;14.18;;
39518;SDS011;25200;53.394;10.414;2023-02-15T11:22:50;26.40;;;14.10;;
39518;SDS011;25200;53.394;10.414;2023-02-15T11:25:39;28.27;;;14.27;;
39518;SDS011;25200;53.394;10.414;2023-02-15T11:28:05;27.58;;;13.70;;
39518;SDS011;25200;53.394;10.414;2023-02-15T11:30:43;28.35;;;14.52;;
39518;SDS011;25200;53.394;10.414;2023-02-15T11:33:20;26.02;;;13.13;;
39518;SDS011;25200;53.394;10.414;2023-02-15T11:36:05;38.38;;;15.32;;
39518;SDS011;25200;53.394;10.414;2023-02-15T11:38:39;32.75;;;15.52;;
39518;SDS011;25200;53.394;10.414;2023-02-15T11:41:11;30.77;;;15.45;;
39518;SDS011;25200;53.394;10.414;2023-02-15T11:43:55;29.42;;;14.48;;
39518;SDS011;25200;53.394;10.414;2023-02-15T11:46:25;27.83;;;15.13;;
39518;SDS011;25200;53.394;10.414;2023-02-15T11:48:51;31.10;;;16.25;;
39518;SDS011;25200;53.394;10.414;2023-02-15T11:51:17;31.00;;;16.00;;
39518;SDS011;25200;53.394;10.414;2023-02-15T11:53:45;29.15;;;15.15;;
39518;SDS011;25200;53.394;10.414;2023-02-15T11:56:16;30.30;;;14.50;;
39518;SDS011;25200;53.394;10.414;2023-02-15T11:58:44;30.05;;;15.43;;
39518;SDS011;25200;53.394;10.414;2023-02-15T12:01:23;28.95;;;14.35;;
39518;SDS011;25200;53.394;10.414;2023-02-15T12:06:35;28.17;;;14.73;;
39518;SDS011;25200;53.394;10.414;2023-02-15T12:14:46;29.38;;;14.25;;
39518;SDS011;25200;53.394;10.414;2023-02-15T12:17:13;28.58;;;15.07;;
39518;SDS011;25200;53.394;10.414;2023-02-15T12:19:41;27.80;;;14.65;;
39518;SDS011;25200;53.394;10.414;2023-02-15T12:22:24;30.10;;;15.38;;
39518;SDS011;25200;53.394;10.414;2023-02-15T12:24:55;28.10;;;14.45;;
39518;SDS011;25200;53.394;10.414;2023-02-15T12:27:25;29.98;;;16.08;;
39518;SDS011;25200;53.394;10.414;2023-02-15T12:29:56;30.83;;;14.93;;
39518;SDS011;25200;53.394;10.414;2023-02-15T12:32:28;29.85;;;16.33;;
39518;SDS011;25200;53.394;10.414;2023-02-15T12:35:06;28.20;;;14.23;;
39518;SDS011;25200;53.394;10.414;2023-02-15T12:37:38;27.95;;;14.55;;
39518;SDS011;25200;53.394;10.414;2023-02-15T12:42:52;26.92;;;14.15;;
39518;SDS011;25200;53.394;10.414;2023-02-15T12:45:20;31.40;;;15.80;;
39518;SDS011;25200;53.394;10.414;2023-02-15T12:48:38;29.73;;;15.02;;
39518;SDS011;25200;53.394;10.414;2023-02-15T12:50:43;28.77;;;15.00;;
39518;SDS011;25200;53.394;10.414;2023-02-15T12:53:14;29.33;;;15.10;;
39518;SDS011;25200;53.394;10.414;2023-02-15T12:55:57;29.60;;;15.70;;
39518;SDS011;25200;53.394;10.414;2023-02-15T12:58:26;26.13;;;14.05;;
39518;SDS011;25200;53.394;10.414;2023-02-15T13:01:28;26.98;;;14.95;;
39518;SDS011;25200;53.394;10.414;2023-02-15T13:06:48;26.58;;;14.98;;
39518;SDS011;25200;53.394;10.414;2023-02-15T13:11:57;29.23;;;15.77;;
39518;SDS011;25200;53.394;10.414;2023-02-15T13:14:57;29.13;;;15.20;;
39518;SDS011;25200;53.394;10.414;2023-02-15T13:17:25;29.73;;;15.90;;
39518;SDS011;25200;53.394;10.414;2023-02-15T13:20:02;29.60;;;15.25;;
39518;SDS011;25200;53.394;10.414;2023-02-15T13:22:39;28.60;;;15.15;;
39518;SDS011;25200;53.394;10.414;2023-02-15T13:25:26;29.38;;;14.95;;
39518;SDS011;25200;53.394;10.414;2023-02-15T13:27:56;29.55;;;15.93;;
39518;SDS011;25200;53.394;10.414;2023-02-15T13:30:33;31.00;;;15.02;;
39518;SDS011;25200;53.394;10.414;2023-02-15T13:33:08;29.88;;;15.75;;
39518;SDS011;25200;53.394;10.414;2023-02-15T13:35:48;29.45;;;16.05;;
39518;SDS011;25200;53.394;10.414;2023-02-15T13:38:49;29.35;;;15.48;;
39518;SDS011;25200;53.394;10.414;2023-02-15T13:41:27;30.88;;;15.77;;
39518;SDS011;25200;53.394;10.414;2023-02-15T13:44:15;34.10;;;16.80;;
39518;SDS011;25200;53.394;10.414;2023-02-15T13:49:45;37.55;;;17.88;;
39518;SDS011;25200;53.394;10.414;2023-02-15T13:52:30;34.80;;;18.35;;
39518;SDS011;25200;53.394;10.414;2023-02-15T14:06:15;32.97;;;17.08;;
39518;SDS011;25200;53.394;10.414;2023-02-15T14:11:29;28.80;;;15.65;;
39518;SDS011;25200;53.394;10.414;2023-02-15T14:17:09;40.80;;;20.23;;
39518;SDS011;25200;53.394;10.414;2023-02-15T14:19:54;35.55;;;19.25;;
39518;SDS011;25200;53.394;10.414;2023-02-15T14:30:32;32.08;;;16.25;;
39518;SDS011;25200;53.394;10.414;2023-02-15T14:35:46;33.17;;;17.50;;
39518;SDS011;25200;53.394;10.414;2023-02-15T14:38:32;32.72;;;17.30;;
39518;SDS011;25200;53.394;10.414;2023-02-15T14:48:55;34.20;;;17.92;;
39518;SDS011;25200;53.394;10.414;2023-02-15T14:59:36;35.22;;;18.20;;
39518;SDS011;25200;53.394;10.414;2023-02-15T15:04:40;29.55;;;16.45;;
39518;SDS011;25200;53.394;10.414;2023-02-15T15:07:24;31.00;;;17.02;;
39518;SDS011;25200;53.394;10.414;2023-02-15T15:12:48;31.45;;;16.77;;
39518;SDS011;25200;53.394;10.414;2023-02-15T15:18:52;28.92;;;15.55;;
39518;SDS011;25200;53.394;10.414;2023-02-15T15:32:44;31.88;;;17.25;;
39518;SDS011;25200;53.394;10.414;2023-02-15T15:43:45;26.15;;;15.45;;
39518;SDS011;25200;53.394;10.414;2023-02-15T15:49:08;26.92;;;15.38;;
39518;SDS011;25200;53.394;10.414;2023-02-15T15:51:39;27.35;;;14.60;;
39518;SDS011;25200;53.394;10.414;2023-02-15T15:54:11;28.13;;;16.23;;
39518;SDS011;25200;53.394;10.414;2023-02-15T15:56:45;34.10;;;16.98;;
39518;SDS011;25200;53.394;10.414;2023-02-15T15:59:21;31.90;;;17.90;;
39518;SDS011;25200;53.394;10.414;2023-02-15T16:01:50;30.75;;;18.40;;
39518;SDS011;25200;53.394;10.414;2023-02-15T16:04:26;33.85;;;19.15;;
39518;SDS011;25200;53.394;10.414;2023-02-15T16:06:54;28.45;;;17.02;;
39518;SDS011;25200;53.394;10.414;2023-02-15T16:09:22;29.98;;;16.10;;
39518;SDS011;25200;53.394;10.414;2023-02-15T16:11:50;26.92;;;15.25;;
39518;SDS011;25200;53.394;10.414;2023-02-15T16:16:57;30.38;;;15.30;;
39518;SDS011;25200;53.394;10.414;2023-02-15T16:19:33;29.20;;;15.40;;
39518;SDS011;25200;53.394;10.414;2023-02-15T16:22:02;29.55;;;14.93;;
39518;SDS011;25200;53.394;10.414;2023-02-15T16:24:41;29.88;;;15.90;;
39518;SDS011;25200;53.394;10.414;2023-02-15T16:27:43;28.88;;;15.25;;
39518;SDS011;25200;53.394;10.414;2023-02-15T16:33:07;28.85;;;15.25;;
39518;SDS011;25200;53.394;10.414;2023-02-15T16:35:41;26.80;;;14.95;;
39518;SDS011;25200;53.394;10.414;2023-02-15T16:38:17;25.13;;;14.00;;
39518;SDS011;25200;53.394;10.414;2023-02-15T16:40:52;28.65;;;14.10;;
39518;SDS011;25200;53.394;10.414;2023-02-15T16:43:26;24.90;;;13.70;;
39518;SDS011;25200;53.394;10.414;2023-02-15T16:46:06;27.17;;;14.05;;
39518;SDS011;25200;53.394;10.414;2023-02-15T16:48:38;24.90;;;13.43;;
39518;SDS011;25200;53.394;10.414;2023-02-15T16:51:06;24.13;;;14.05;;
39518;SDS011;25200;53.394;10.414;2023-02-15T16:53:32;25.10;;;13.48;;
39518;SDS011;25200;53.394;10.414;2023-02-15T16:55:59;25.48;;;13.75;;
39518;SDS011;25200;53.394;10.414;2023-02-15T16:58:29;25.40;;;14.00;;
39518;SDS011;25200;53.394;10.414;2023-02-15T17:00:57;41.80;;;19.25;;
39518;SDS011;25200;53.394;10.414;2023-02-15T17:03:24;67.47;;;26.42;;
39518;SDS011;25200;53.394;10.414;2023-02-15T17:13:28;34.47;;;18.42;;
39518;SDS011;25200;53.394;10.414;2023-02-15T17:18:23;30.17;;;16.90;;
39518;SDS011;25200;53.394;10.414;2023-02-15T17:20:50;29.85;;;16.08;;
39518;SDS011;25200;53.394;10.414;2023-02-15T17:26:11;26.75;;;15.48;;
39518;SDS011;25200;53.394;10.414;2023-02-15T17:28:46;27.75;;;14.55;;
39518;SDS011;25200;53.394;10.414;2023-02-15T17:31:14;27.42;;;14.90;;
39518;SDS011;25200;53.394;10.414;2023-02-15T17:33:42;25.65;;;14.45;;
39518;SDS011;25200;53.394;10.414;2023-02-15T17:36:12;26.55;;;14.38;;
39518;SDS011;25200;53.394;10.414;2023-02-15T17:41:35;26.40;;;13.95;;
39518;SDS011;25200;53.394;10.414;2023-02-15T17:44:03;25.60;;;13.48;;
39518;SDS011;25200;53.394;10.414;2023-02-15T17:46:32;23.35;;;13.50;;
39518;SDS011;25200;53.394;10.414;2023-02-15T17:49:00;26.38;;;14.10;;
39518;SDS011;25200;53.394;10.414;2023-02-15T17:51:27;26.55;;;14.30;;
39518;SDS011;25200;53.394;10.414;2023-02-15T17:53:52;28.08;;;14.77;;
39518;SDS011;25200;53.394;10.414;2023-02-15T17:56:37;31.65;;;15.85;;
39518;SDS011;25200;53.394;10.414;2023-02-15T17:59:04;31.33;;;16.27;;
39518;SDS011;25200;53.394;10.414;2023-02-15T18:01:34;29.25;;;14.88;;
39518;SDS011;25200;53.394;10.414;2023-02-15T18:04:21;33.10;;;14.48;;
39518;SDS011;25200;53.394;10.414;2023-02-15T18:07:07;24.40;;;12.30;;
39518;SDS011;25200;53.394;10.414;2023-02-15T18:09:52;22.98;;;11.73;;
39518;SDS011;25200;53.394;10.414;2023-02-15T18:12:37;23.23;;;12.20;;
39518;SDS011;25200;53.394;10.414;2023-02-15T18:15:03;24.48;;;13.23;;
39518;SDS011;25200;53.394;10.414;2023-02-15T18:17:33;22.30;;;11.77;;
39518;SDS011;25200;53.394;10.414;2023-02-15T18:20:03;20.05;;;11.63;;
39518;SDS011;25200;53.394;10.414;2023-02-15T18:22:42;20.08;;;11.23;;